createdAt,value
2018-03-06T00:00:01.754Z,61.90
2018-03-06T00:02:27.596Z,62.40
2018-03-06T00:04:53.431Z,68.03
2018-03-06T00:07:19.274Z,76.37
2018-03-06T00:09:45.165Z,69.33
2018-03-06T00:12:10.981Z,71.33
2018-03-06T00:14:36.891Z,60.23
2018-03-06T00:17:02.773Z,70.67
2018-03-06T00:19:28.607Z,67.27
2018-03-06T00:21:54.439Z,75.73
2018-03-06T00:24:20.278Z,70.27
2018-03-06T00:26:46.111Z,70.77
2018-03-06T00:29:11.938Z,78.17
2018-03-06T00:31:37.786Z,73.60
2018-03-06T00:34:03.631Z,79.67
2018-03-06T00:36:29.484Z,72.77
2018-03-06T00:38:55.335Z,75.47
2018-03-06T00:41:21.174Z,72.80
2018-03-06T00:43:47.020Z,73.00
2018-03-06T00:46:12.869Z,70.17
2018-03-06T00:48:38.709Z,78.50
2018-03-06T00:51:04.549Z,69.97
2018-03-06T00:53:30.404Z,72.13
2018-03-06T00:55:56.234Z,76.30
2018-03-06T00:58:22.079Z,71.90
2018-03-06T01:00:47.929Z,74.17
2018-03-06T01:03:13.761Z,71.40
2018-03-06T01:05:39.667Z,77.93
2018-03-06T01:08:05.514Z,73.93
2018-03-06T01:10:31.343Z,69.53
2018-03-06T01:12:57.176Z,66.70
2018-03-06T01:15:23.127Z,73.37
2018-03-06T01:17:48.968Z,75.60
2018-03-06T01:20:14.810Z,76.50
2018-03-06T01:22:40.663Z,59.40
2018-03-06T01:25:06.495Z,69.37
2018-03-06T01:27:32.392Z,69.67
2018-03-06T01:29:58.248Z,67.50
2018-03-06T01:32:24.067Z,66.77
2018-03-06T01:34:49.891Z,67.63
2018-03-06T01:37:15.731Z,68.87
2018-03-06T01:39:41.563Z,66.43
2018-03-06T01:42:07.386Z,70.57
2018-03-06T01:44:33.218Z,84.10
2018-03-06T01:46:59.056Z,79.73
2018-03-06T01:49:24.970Z,67.60
2018-03-06T01:51:56.916Z,73.97
2018-03-06T01:54:22.771Z,70.97
2018-03-06T01:56:48.606Z,65.97
2018-03-06T01:59:14.437Z,68.07
2018-03-06T02:01:40.275Z,72.83
2018-03-06T02:04:06.106Z,82.67
2018-03-06T02:06:31.948Z,72.50
2018-03-06T02:08:57.775Z,74.37
2018-03-06T02:11:23.623Z,71.87
2018-03-06T02:13:49.480Z,65.93
2018-03-06T02:16:15.464Z,70.80
2018-03-06T02:18:41.308Z,63.47
2018-03-06T02:21:07.137Z,66.60
2018-03-06T02:23:32.971Z,65.30
2018-03-06T02:25:58.827Z,74.43
2018-03-06T02:28:24.671Z,75.87
2018-03-06T02:30:50.490Z,79.47
2018-03-06T02:33:16.327Z,64.43
2018-03-06T02:35:42.158Z,66.93
2018-03-06T02:38:07.986Z,65.37
2018-03-06T02:40:33.814Z,60.20
2018-03-06T02:43:06.510Z,65.13
2018-03-06T02:45:32.372Z,69.07
2018-03-06T02:47:58.202Z,71.27
2018-03-06T02:50:24.030Z,64.40
2018-03-06T02:52:49.854Z,64.80
2018-03-06T02:55:15.682Z,65.03
2018-03-06T02:57:41.521Z,66.20
2018-03-06T03:00:07.362Z,64.83
2018-03-06T03:02:33.199Z,71.47
2018-03-06T03:04:59.052Z,71.10
2018-03-06T03:07:24.887Z,63.20
2018-03-06T03:09:50.750Z,70.57
2018-03-06T03:12:16.586Z,70.03
2018-03-06T03:14:42.420Z,69.33
2018-03-06T03:17:08.306Z,78.53
2018-03-06T03:19:34.165Z,62.00
2018-03-06T03:22:00.012Z,67.03
2018-03-06T03:24:25.856Z,63.80
2018-03-06T03:26:51.709Z,61.80
2018-03-06T03:29:17.536Z,63.40
2018-03-06T03:31:43.371Z,58.83
2018-03-06T03:34:09.221Z,59.13
2018-03-06T03:36:35.035Z,55.10
2018-03-06T03:39:00.874Z,57.83
2018-03-06T03:41:26.746Z,58.67
2018-03-06T03:43:52.586Z,59.30
2018-03-06T03:46:18.435Z,57.33
2018-03-06T03:48:44.282Z,52.53
2018-03-06T03:51:10.189Z,51.07
2018-03-06T03:53:36.018Z,62.47
2018-03-06T03:56:01.882Z,60.03
2018-03-06T03:58:28.390Z,52.80
2018-03-06T04:00:54.229Z,61.07
2018-03-06T04:03:20.070Z,53.33
2018-03-06T04:05:45.906Z,57.60
2018-03-06T04:08:11.746Z,54.40
2018-03-06T04:10:37.632Z,52.43
2018-03-06T04:13:03.483Z,52.63
2018-03-06T04:15:29.311Z,57.23
2018-03-06T04:17:55.231Z,53.73
2018-03-06T04:20:21.075Z,54.57
2018-03-06T04:22:46.903Z,57.93
2018-03-06T04:25:12.765Z,47.43
2018-03-06T04:27:38.589Z,58.43
2018-03-06T04:30:04.419Z,52.03
2018-03-06T04:32:30.266Z,64.07
2018-03-06T04:34:56.090Z,64.00
2018-03-06T04:37:21.923Z,56.53
2018-03-06T04:39:47.835Z,56.63
2018-03-06T04:42:13.673Z,57.23
2018-03-06T04:44:39.511Z,49.93
2018-03-06T04:47:05.354Z,54.00
2018-03-06T04:49:31.345Z,59.57
2018-03-06T04:51:57.174Z,55.70
2018-03-06T04:54:23.005Z,53.23
2018-03-06T04:56:48.842Z,55.20
2018-03-06T04:59:14.670Z,56.33
2018-03-06T05:01:40.506Z,61.80
2018-03-06T05:04:06.345Z,55.10
2018-03-06T05:06:32.184Z,48.93
2018-03-06T05:08:58.038Z,57.50
2018-03-06T05:11:23.881Z,58.83
2018-03-06T05:13:49.716Z,52.73
2018-03-06T05:16:15.560Z,64.80
2018-03-06T05:18:41.403Z,67.90
2018-03-06T05:21:07.278Z,60.90
2018-03-06T05:23:33.121Z,68.53
2018-03-06T05:25:58.955Z,80.10
2018-03-06T05:28:24.781Z,75.00
2018-03-06T05:30:50.631Z,68.60
2018-03-06T05:33:16.450Z,73.57
2018-03-06T05:35:42.285Z,70.83
2018-03-06T05:38:08.126Z,65.73
2018-03-06T05:40:33.954Z,72.97
2018-03-06T05:42:59.779Z,62.07
2018-03-06T05:45:25.619Z,82.93
2018-03-06T05:47:51.467Z,70.10
2018-03-06T05:50:17.282Z,75.93
2018-03-06T05:52:43.119Z,66.93
2018-03-06T05:55:08.982Z,68.93
2018-03-06T05:57:34.818Z,69.83
2018-03-06T06:00:00.669Z,66.33
2018-03-06T06:02:26.511Z,69.00
2018-03-06T06:04:52.366Z,71.60
2018-03-06T06:07:18.204Z,70.27
2018-03-06T06:09:44.064Z,66.27
2018-03-06T06:12:09.916Z,63.27
2018-03-06T06:14:35.749Z,70.67
2018-03-06T06:17:01.566Z,75.20
2018-03-06T06:19:27.466Z,67.50
2018-03-06T06:21:53.289Z,65.40
2018-03-06T06:24:19.115Z,63.30
2018-03-06T06:26:44.936Z,65.80
2018-03-06T06:29:10.769Z,63.60
2018-03-06T06:31:36.603Z,75.40
2018-03-06T06:34:02.451Z,68.03
2018-03-06T06:36:28.324Z,74.43
2018-03-06T06:38:54.150Z,68.33
2018-03-06T06:41:20.011Z,83.27
2018-03-06T06:43:45.847Z,66.80
2018-03-06T06:46:11.691Z,80.00
2018-03-06T06:48:37.586Z,69.30
2018-03-06T06:51:03.436Z,70.97
2018-03-06T06:53:29.261Z,65.73
2018-03-06T06:55:55.084Z,73.57
2018-03-06T06:58:20.914Z,69.20
2018-03-06T07:00:46.738Z,65.43
2018-03-06T07:03:12.566Z,64.17
2018-03-06T07:05:38.426Z,74.47
2018-03-06T07:08:04.251Z,68.70
2018-03-06T07:10:30.066Z,68.33
2018-03-06T07:12:55.929Z,60.60
2018-03-06T07:15:21.929Z,58.70
2018-03-06T07:17:47.940Z,69.37
2018-03-06T07:20:13.787Z,72.20
2018-03-06T07:22:39.638Z,64.23
2018-03-06T07:25:05.469Z,69.17
2018-03-06T07:27:31.446Z,66.03
2018-03-06T07:29:57.404Z,66.57
2018-03-06T07:32:23.229Z,60.53
2018-03-06T07:34:49.062Z,49.90
2018-03-06T07:37:14.877Z,54.60
2018-03-06T07:39:40.702Z,55.87
2018-03-06T07:42:06.538Z,52.60
2018-03-06T07:44:32.384Z,55.67
2018-03-06T07:46:58.282Z,48.13
2018-03-06T07:49:24.275Z,53.20
2018-03-06T07:51:50.104Z,56.43
2018-03-06T07:54:15.926Z,51.20
2018-03-06T07:56:41.756Z,48.90
2018-03-06T07:59:07.590Z,52.83
2018-03-06T08:01:33.420Z,63.10
2018-03-06T08:03:59.275Z,54.90
2018-03-06T08:06:25.082Z,56.70
2018-03-06T08:08:50.906Z,51.60
2018-03-06T08:11:16.742Z,56.70
2018-03-06T08:13:42.609Z,51.07
2018-03-06T08:16:08.419Z,48.27
2018-03-06T08:18:34.248Z,56.80
2018-03-06T08:21:00.390Z,53.23
2018-03-06T08:23:26.227Z,57.60
2018-03-06T08:25:52.049Z,54.50
2018-03-06T08:28:17.891Z,58.80
2018-03-06T08:30:43.700Z,52.60
2018-03-06T08:33:09.539Z,54.20
2018-03-06T08:35:35.359Z,53.90
2018-03-06T08:38:01.171Z,59.63
2018-03-06T08:40:27.001Z,57.53
2018-03-06T08:42:52.841Z,56.20
2018-03-06T08:45:18.655Z,59.00
2018-03-06T08:47:44.480Z,56.60
2018-03-06T08:50:10.310Z,60.77
2018-03-06T08:52:36.140Z,56.60
2018-03-06T08:55:01.971Z,51.90
2018-03-06T08:57:27.783Z,66.40
2018-03-06T08:59:53.610Z,59.27
2018-03-06T09:02:19.430Z,53.63
2018-03-06T09:04:45.271Z,57.77
2018-03-06T09:07:11.154Z,62.10
2018-03-06T09:09:36.983Z,59.20
2018-03-06T09:12:02.820Z,53.37
2018-03-06T09:14:28.646Z,52.63
2018-03-06T09:16:54.482Z,50.33
2018-03-06T09:19:20.314Z,51.73
2018-03-06T09:21:46.252Z,58.17
2018-03-06T09:24:12.100Z,57.30
2018-03-06T09:26:37.923Z,55.20
2018-03-06T09:29:03.735Z,60.80
2018-03-06T09:31:29.557Z,55.27
2018-03-06T09:33:55.393Z,53.53
2018-03-06T09:36:21.216Z,60.03
2018-03-06T09:38:47.041Z,56.90
2018-03-06T09:41:12.851Z,51.00
2018-03-06T09:43:38.671Z,54.33
2018-03-06T09:46:04.495Z,52.80
2018-03-06T09:48:30.306Z,56.67
2018-03-06T09:50:56.122Z,59.70
2018-03-06T09:53:21.944Z,59.67
2018-03-06T09:55:47.751Z,59.93
2018-03-06T09:58:13.555Z,57.50
2018-03-06T10:00:39.380Z,58.20
2018-03-06T10:03:05.203Z,62.33
2018-03-06T10:05:31.022Z,55.53
2018-03-06T10:07:56.846Z,62.63
2018-03-06T10:10:22.650Z,52.97
2018-03-06T10:12:55.477Z,59.53
2018-03-06T10:15:21.309Z,59.13
2018-03-06T10:17:47.111Z,55.13
2018-03-06T10:20:12.977Z,54.93
2018-03-06T10:22:38.817Z,58.33
2018-03-06T10:25:04.637Z,59.50
2018-03-06T10:27:30.455Z,52.20
2018-03-06T10:29:56.277Z,59.63
2018-03-06T10:32:22.166Z,53.13
2018-03-06T10:34:47.999Z,59.60
2018-03-06T10:37:13.835Z,99.17
2018-03-06T10:39:39.654Z,64.47
2018-03-06T10:42:05.472Z,56.63
2018-03-06T10:44:31.295Z,63.10
2018-03-06T10:46:57.106Z,58.97
2018-03-06T10:49:22.919Z,58.13
2018-03-06T10:51:48.759Z,60.57
2018-03-06T10:54:14.584Z,58.50
2018-03-06T10:56:40.415Z,61.17
2018-03-06T10:59:06.256Z,57.00
2018-03-06T11:01:32.076Z,56.20
2018-03-06T11:03:57.962Z,60.03
2018-03-06T11:06:23.788Z,61.53
2018-03-06T11:08:49.602Z,54.60
2018-03-06T11:11:15.415Z,57.97
2018-03-06T11:13:41.252Z,57.67
2018-03-06T11:16:07.069Z,58.13
2018-03-06T11:18:32.890Z,57.50
2018-03-06T11:20:58.727Z,56.60
2018-03-06T11:23:24.609Z,61.50
2018-03-06T11:25:50.426Z,68.23
2018-03-06T11:28:16.269Z,53.57
2018-03-06T11:30:42.082Z,62.03
2018-03-06T11:33:07.890Z,65.50
2018-03-06T11:35:33.718Z,61.43
2018-03-06T11:37:59.535Z,62.60
2018-03-06T11:40:25.345Z,61.17
2018-03-06T11:42:51.211Z,61.57
2018-03-06T11:45:17.031Z,73.37
2018-03-06T11:47:42.843Z,67.10
2018-03-06T11:50:08.662Z,60.27
2018-03-06T11:52:34.474Z,64.50
2018-03-06T11:55:00.302Z,60.70
2018-03-06T11:57:26.135Z,65.87
2018-03-06T11:59:51.964Z,64.40
2018-03-06T12:02:24.870Z,57.27
2018-03-06T12:04:50.708Z,59.87
2018-03-06T12:07:16.528Z,60.93
2018-03-06T12:09:42.339Z,65.50
2018-03-06T12:12:08.180Z,68.07
2018-03-06T12:14:33.998Z,58.80
2018-03-06T12:16:59.816Z,66.80
2018-03-06T12:19:25.642Z,60.13
2018-03-06T12:21:51.464Z,64.13
2018-03-06T12:24:17.365Z,63.70
2018-03-06T12:26:43.193Z,59.07
2018-03-06T12:29:09.011Z,58.07
2018-03-06T12:31:34.817Z,52.70
2018-03-06T12:34:00.653Z,56.53
2018-03-06T12:36:26.473Z,61.37
2018-03-06T12:38:59.323Z,56.20
2018-03-06T12:41:25.167Z,57.50
2018-03-06T12:43:50.999Z,55.43
2018-03-06T12:46:17.125Z,60.67
2018-03-06T12:48:42.943Z,60.30
2018-03-06T12:51:08.762Z,55.33
2018-03-06T12:53:34.619Z,52.60
2018-03-06T12:56:00.451Z,66.93
2018-03-06T12:58:26.542Z,54.10
2018-03-06T13:00:52.358Z,56.50
2018-03-06T13:03:18.186Z,61.77
2018-03-06T13:05:44.003Z,59.50
2018-03-06T13:08:09.816Z,59.77
2018-03-06T13:10:35.652Z,53.87
2018-03-06T13:13:01.520Z,53.87
2018-03-06T13:15:27.326Z,50.90
2018-03-06T13:17:53.217Z,50.33
2018-03-06T13:20:19.057Z,57.57
2018-03-06T13:22:44.878Z,54.00
2018-03-06T13:25:10.846Z,53.60
2018-03-06T13:27:36.659Z,53.20
2018-03-06T13:30:02.504Z,51.70
2018-03-06T13:32:28.333Z,54.00
2018-03-06T13:34:54.159Z,59.13
2018-03-06T13:37:19.973Z,62.77
2018-03-06T13:39:45.814Z,48.03
2018-03-06T13:42:11.641Z,56.13
2018-03-06T13:44:37.490Z,56.37
2018-03-06T13:47:03.325Z,55.03
2018-03-06T13:49:29.455Z,55.50
2018-03-06T13:51:55.267Z,54.23
2018-03-06T13:54:21.088Z,55.60
2018-03-06T13:56:46.902Z,55.53
2018-03-06T13:59:12.714Z,57.90
2018-03-06T14:01:38.534Z,55.30
2018-03-06T14:04:04.347Z,56.40
2018-03-06T14:06:30.159Z,58.30
2018-03-06T14:08:55.978Z,55.00
2018-03-06T14:11:21.790Z,62.33
2018-03-06T14:13:47.610Z,59.20
2018-03-06T14:16:13.430Z,52.70
2018-03-06T14:18:39.243Z,56.67
2018-03-06T14:21:05.061Z,57.00
2018-03-06T14:23:30.892Z,53.37
2018-03-06T14:25:56.793Z,53.60
2018-03-06T14:28:22.642Z,62.93
2018-03-06T14:30:48.475Z,54.87
2018-03-06T14:33:14.307Z,52.37
2018-03-06T14:35:40.141Z,59.20
2018-03-06T14:38:05.959Z,54.17
2018-03-06T14:40:31.768Z,57.03
2018-03-06T14:42:57.595Z,55.20
2018-03-06T14:45:23.415Z,59.73
2018-03-06T14:47:49.247Z,56.77
2018-03-06T14:50:15.047Z,51.80
2018-03-06T14:52:40.866Z,50.03
2018-03-06T14:55:06.686Z,52.37
2018-03-06T14:57:32.505Z,57.53
2018-03-06T14:59:59.239Z,58.97
2018-03-06T15:02:25.067Z,55.13
2018-03-06T15:04:50.882Z,57.90
2018-03-06T15:07:16.702Z,93.23
2018-03-06T15:09:42.519Z,55.07
2018-03-06T15:12:15.362Z,57.80
2018-03-06T15:14:41.207Z,57.17
2018-03-06T15:17:07.022Z,54.30
2018-03-06T15:19:32.849Z,56.80
2018-03-06T15:21:58.674Z,53.87
2018-03-06T15:24:24.480Z,54.60
2018-03-06T15:26:50.366Z,54.00
2018-03-06T15:29:16.206Z,55.67
2018-03-06T15:31:42.032Z,57.53
2018-03-06T15:34:07.875Z,58.30
2018-03-06T15:36:33.705Z,54.33
2018-03-06T15:38:59.519Z,57.70
2018-03-06T15:41:25.328Z,51.03
2018-03-06T15:43:51.163Z,49.73
2018-03-06T15:46:16.979Z,58.73
2018-03-06T15:48:42.798Z,52.57
2018-03-06T15:51:08.622Z,49.40
2018-03-06T15:53:34.443Z,51.70
2018-03-06T15:56:00.247Z,51.83
2018-03-06T15:58:26.074Z,52.53
2018-03-06T16:00:51.890Z,59.47
2018-03-06T16:03:17.703Z,72.27
2018-03-06T16:05:43.538Z,64.77
2018-03-06T16:08:09.740Z,58.73
2018-03-06T16:10:35.574Z,54.70
2018-03-06T16:13:01.430Z,59.00
2018-03-06T16:15:27.254Z,65.60
2018-03-06T16:17:53.090Z,58.37
2018-03-06T16:20:18.932Z,55.40
2018-03-06T16:22:44.750Z,60.07
2018-03-06T16:25:10.577Z,58.57
2018-03-06T16:27:36.557Z,65.67
2018-03-06T16:30:02.376Z,56.23
2018-03-06T16:32:28.206Z,63.73
2018-03-06T16:34:54.061Z,58.90
2018-03-06T16:37:19.880Z,60.67
2018-03-06T16:39:45.725Z,114.73
2018-03-06T16:42:11.562Z,67.53
2018-03-06T16:44:37.419Z,98.07
2018-03-06T16:47:03.251Z,79.87
2018-03-06T16:49:29.075Z,88.87
2018-03-06T16:51:54.895Z,66.37
2018-03-06T16:54:20.739Z,66.97
2018-03-06T16:56:46.571Z,75.73
2018-03-06T16:59:12.383Z,68.60
2018-03-06T17:01:38.190Z,73.37
2018-03-06T17:04:11.252Z,62.83
2018-03-06T17:06:37.118Z,86.30
2018-03-06T17:09:03.024Z,71.57
2018-03-06T17:11:28.849Z,67.07
2018-03-06T17:13:54.670Z,67.57
2018-03-06T17:16:20.474Z,66.90
2018-03-06T17:18:46.386Z,71.97
2018-03-06T17:21:12.218Z,71.57
2018-03-06T17:23:38.042Z,76.47
2018-03-06T17:26:03.878Z,63.20
2018-03-06T17:28:29.793Z,74.13
2018-03-06T17:30:55.636Z,69.43
2018-03-06T17:33:21.462Z,66.67
2018-03-06T17:35:47.283Z,65.97
2018-03-06T17:38:13.116Z,64.23
2018-03-06T17:40:38.953Z,74.47
2018-03-06T17:43:04.786Z,72.13
2018-03-06T17:45:30.603Z,76.83
2018-03-06T17:47:56.451Z,71.63
2018-03-06T17:50:22.287Z,75.50
2018-03-06T17:52:48.111Z,69.90
2018-03-06T17:55:14.155Z,74.90
2018-03-06T17:57:39.974Z,78.70
2018-03-06T18:00:05.815Z,82.50
2018-03-06T18:02:38.622Z,78.80
2018-03-06T18:05:04.641Z,75.33
2018-03-06T18:07:30.622Z,77.90
2018-03-06T18:09:56.518Z,86.10
2018-03-06T18:12:22.330Z,82.97
2018-03-06T18:14:48.186Z,80.07
2018-03-06T18:17:14.034Z,98.77
2018-03-06T18:19:39.862Z,91.90
2018-03-06T18:22:05.694Z,96.43
2018-03-06T18:24:32.355Z,96.40
2018-03-06T18:26:58.187Z,84.53
2018-03-06T18:29:24.028Z,96.90
2018-03-06T18:31:57.244Z,100.50
2018-03-06T18:34:23.102Z,88.13
2018-03-06T18:36:49.106Z,94.23
2018-03-06T18:39:14.960Z,101.93
2018-03-06T18:41:40.796Z,88.67
2018-03-06T18:44:06.679Z,92.23
2018-03-06T18:46:32.519Z,89.70
2018-03-06T18:48:58.364Z,95.50
2018-03-06T18:51:24.206Z,97.60
2018-03-06T18:53:50.074Z,100.37
2018-03-06T18:56:15.892Z,101.53
2018-03-06T18:58:41.754Z,93.93
2018-03-06T19:14:35.390Z,96.90
2018-03-06T19:17:02.843Z,87.93
2018-03-06T19:19:30.286Z,103.20
2018-03-06T19:21:57.745Z,107.47
2018-03-06T19:24:25.202Z,115.97
2018-03-06T19:26:52.674Z,105.25
2018-03-06T19:29:20.123Z,99.53
2018-03-06T19:31:47.575Z,106.70
2018-03-06T19:34:15.047Z,99.30
2018-03-06T19:36:42.491Z,98.87
2018-03-06T19:39:09.933Z,97.17
2018-03-06T19:41:37.390Z,97.22
2018-03-06T19:47:07.889Z,102.90
2018-03-06T19:49:35.454Z,99.07
2018-03-06T19:52:02.911Z,97.87
2018-03-06T19:54:30.375Z,108.10
2018-03-06T19:56:58.906Z,98.75
2018-03-06T19:59:26.337Z,207.17
2018-03-06T20:01:53.802Z,127.23
2018-03-06T20:04:21.275Z,112.33
2018-03-06T20:06:48.757Z,136.40
2018-03-06T20:09:16.209Z,109.30
2018-03-06T20:11:43.656Z,111.97
2018-03-06T20:14:11.278Z,106.15
2018-03-06T20:16:38.870Z,103.68
2018-03-06T20:19:12.007Z,109.80
2018-03-06T20:21:39.544Z,110.77
2018-03-06T20:24:12.584Z,99.77
2018-03-06T20:26:40.513Z,93.43
2018-03-06T20:29:08.809Z,110.83
2018-03-06T20:31:41.986Z,111.80
2018-03-06T20:34:09.474Z,101.53
2018-03-06T20:36:36.985Z,107.20
2018-03-06T20:39:10.050Z,119.62
2018-03-06T20:41:37.753Z,115.90
2018-03-06T20:44:05.451Z,108.47
2018-03-06T20:46:38.837Z,119.55
2018-03-06T20:49:06.405Z,117.93
2018-03-06T20:51:33.955Z,113.17
2018-03-06T20:54:07.356Z,116.33
2018-03-06T20:56:34.983Z,117.67
2018-03-06T20:59:02.789Z,120.13
2018-03-06T21:01:30.262Z,103.23
2018-03-06T21:03:57.691Z,125.90
2018-03-06T21:06:25.119Z,108.77
2018-03-06T21:08:52.563Z,117.77
2018-03-06T21:11:19.998Z,102.27
2018-03-06T21:13:47.474Z,112.83
2018-03-06T21:16:14.894Z,120.30
2018-03-06T21:18:42.338Z,121.33
2018-03-06T21:21:09.777Z,136.13
2018-03-06T21:23:37.222Z,124.13
2018-03-06T21:26:04.762Z,123.87
2018-03-06T21:28:32.203Z,130.05
2018-03-06T21:30:59.646Z,118.03
2018-03-06T21:33:27.085Z,120.10
2018-03-06T21:35:54.594Z,127.07
2018-03-06T21:38:22.057Z,121.90
2018-03-06T21:40:49.510Z,119.87
2018-03-06T21:43:16.946Z,128.17
2018-03-06T21:45:44.406Z,125.70
2018-03-06T21:48:11.915Z,123.70
2018-03-06T21:50:39.383Z,139.52
2018-03-06T21:53:06.831Z,118.33
2018-03-06T21:55:34.301Z,120.27
2018-03-06T21:58:01.739Z,111.30
2018-03-06T22:00:29.183Z,116.07
2018-03-06T22:02:56.735Z,125.83
2018-03-06T22:05:24.182Z,125.37
2018-03-06T22:07:51.631Z,137.87
2018-03-06T22:10:19.067Z,182.70
2018-03-06T22:12:46.504Z,125.03
2018-03-06T22:15:13.983Z,128.10
2018-03-06T22:17:41.450Z,126.37
2018-03-06T22:20:08.931Z,119.93
2018-03-06T22:22:36.421Z,129.60
2018-03-06T22:25:03.853Z,136.50
2018-03-06T22:27:31.287Z,123.07
2018-03-06T22:29:58.746Z,128.87
2018-03-06T22:32:26.211Z,134.12
2018-03-06T22:34:54.382Z,139.80
2018-03-06T22:37:21.854Z,155.23
2018-03-06T22:39:49.314Z,141.10
2018-03-06T22:42:16.748Z,145.27
2018-03-06T22:44:44.217Z,151.50
2018-03-06T22:47:11.653Z,132.30
2018-03-06T22:49:39.095Z,154.80
2018-03-06T22:52:06.544Z,146.67
2018-03-06T22:54:33.975Z,157.03
2018-03-06T22:57:01.416Z,156.10
2018-03-06T22:59:28.871Z,137.17
2018-03-06T23:01:56.311Z,151.00
2018-03-06T23:04:24.534Z,142.30
2018-03-06T23:06:52.055Z,137.80
2018-03-06T23:09:19.498Z,145.57
2018-03-06T23:11:46.938Z,141.57
2018-03-06T23:14:14.375Z,138.83
2018-03-06T23:16:41.806Z,161.10
2018-03-06T23:19:09.256Z,160.60
2018-03-06T23:21:36.899Z,174.33
2018-03-06T23:24:04.331Z,167.67
2018-03-06T23:26:31.759Z,145.18
2018-03-06T23:28:59.202Z,137.33
2018-03-06T23:31:26.726Z,133.83
2018-03-06T23:33:54.170Z,150.93
2018-03-06T23:36:21.710Z,144.97
2018-03-06T23:38:49.478Z,147.83
2018-03-06T23:41:16.970Z,164.50
2018-03-06T23:43:44.538Z,163.23
2018-03-06T23:46:12.074Z,133.93
2018-03-06T23:48:39.572Z,154.13
2018-03-06T23:51:07.069Z,167.97
2018-03-06T23:53:34.591Z,155.17
2018-03-06T23:56:02.148Z,170.48
2018-03-06T23:58:29.811Z,168.23
